createdAt,value
2022-11-16T00:00:13.904Z,30.52
2022-11-16T00:03:40.133Z,28.80
2022-11-16T00:23:00.768Z,23.35
2022-11-16T00:25:28.767Z,16.48
2022-11-16T00:27:56.472Z,18.02
2022-11-16T00:30:24.551Z,23.20
2022-11-16T00:32:52.860Z,23.80
2022-11-16T00:35:20.849Z,23.65
2022-11-16T00:37:48.631Z,21.48
2022-11-16T00:40:16.628Z,22.48
2022-11-16T00:42:44.358Z,16.48
2022-11-16T00:45:12.312Z,16.98
2022-11-16T00:47:40.157Z,13.75
2022-11-16T00:50:08.857Z,16.42
2022-11-16T00:52:36.830Z,15.30
2022-11-16T00:55:05.320Z,18.52
2022-11-16T00:57:33.344Z,18.75
2022-11-16T01:00:01.427Z,22.27
2022-11-16T01:02:30.729Z,24.10
2022-11-16T01:05:00.198Z,25.52
2022-11-16T01:15:38.510Z,23.88
2022-11-16T01:26:47.348Z,19.13
2022-11-16T01:30:14.841Z,18.17
2022-11-16T01:32:48.748Z,19.55
2022-11-16T01:35:19.291Z,19.13
2022-11-16T01:37:48.450Z,18.33
2022-11-16T01:40:16.769Z,20.17
2022-11-16T01:42:45.854Z,19.63
2022-11-16T01:56:27.098Z,17.00
2022-11-16T01:59:07.156Z,18.00
2022-11-16T02:01:35.190Z,20.35
2022-11-16T02:04:04.390Z,17.23
2022-11-16T02:07:01.717Z,15.82
2022-11-16T02:10:02.910Z,15.82
2022-11-16T02:12:39.901Z,16.65
2022-11-16T02:15:22.157Z,26.05
2022-11-16T02:18:38.557Z,21.35
2022-11-16T02:21:29.047Z,18.98
2022-11-16T02:34:50.527Z,14.70
2022-11-16T02:37:23.112Z,15.52
2022-11-16T02:39:58.313Z,16.10
2022-11-16T02:42:35.950Z,15.95
2022-11-16T02:45:08.280Z,15.25
2022-11-16T02:47:38.666Z,20.83
2022-11-16T02:50:12.712Z,14.45
2022-11-16T02:52:40.561Z,12.98
2022-11-16T02:55:11.678Z,13.38
2022-11-16T02:57:54.290Z,19.75
2022-11-16T03:02:10.503Z,31.88
2022-11-16T03:04:48.839Z,29.35
2022-11-16T03:07:23.171Z,17.90
2022-11-16T03:10:34.870Z,18.23
2022-11-16T03:18:04.606Z,15.07
2022-11-16T03:21:27.661Z,13.73
2022-11-16T03:23:56.054Z,21.30
2022-11-16T03:26:30.690Z,15.93
2022-11-16T03:29:14.481Z,14.07
2022-11-16T03:31:57.398Z,13.45
2022-11-16T03:34:31.912Z,18.88
2022-11-16T03:37:00.879Z,13.57
2022-11-16T03:39:37.918Z,15.07
2022-11-16T03:55:00.934Z,11.75
2022-11-16T04:02:23.180Z,12.25
2022-11-16T04:05:52.098Z,13.20
2022-11-16T04:08:38.552Z,12.20
2022-11-16T04:11:30.941Z,14.68
2022-11-16T04:14:17.675Z,12.50
2022-11-16T04:17:04.224Z,12.32
2022-11-16T04:19:57.788Z,14.32
2022-11-16T04:22:53.394Z,11.82
2022-11-16T04:25:27.552Z,13.05
2022-11-16T04:28:13.683Z,11.77
2022-11-16T04:31:13.133Z,14.90
2022-11-16T04:34:04.980Z,10.40
2022-11-16T04:36:51.796Z,11.05
2022-11-16T04:39:19.852Z,10.38
2022-11-16T04:42:06.503Z,11.80
2022-11-16T04:44:55.238Z,13.68
2022-11-16T04:47:26.733Z,13.23
2022-11-16T04:49:54.728Z,11.75
2022-11-16T04:52:24.747Z,10.98
2022-11-16T04:54:54.772Z,14.43
2022-11-16T04:57:23.789Z,11.32
2022-11-16T04:59:52.374Z,11.70
2022-11-16T05:02:20.836Z,17.83
2022-11-16T05:04:53.121Z,15.65
2022-11-16T05:07:22.459Z,20.35
2022-11-16T05:09:52.034Z,15.20
2022-11-16T05:12:22.782Z,17.60
2022-11-16T05:14:55.509Z,15.82
2022-11-16T05:17:27.973Z,15.10
2022-11-16T05:20:16.245Z,17.25
2022-11-16T05:22:57.831Z,14.75
2022-11-16T05:25:34.013Z,12.32
2022-11-16T05:28:06.074Z,12.13
2022-11-16T05:30:38.077Z,14.05
2022-11-16T05:33:06.255Z,12.90
2022-11-16T05:35:38.783Z,17.00
2022-11-16T05:38:07.398Z,13.55
2022-11-16T05:40:40.355Z,11.32
2022-11-16T05:43:08.679Z,10.32
2022-11-16T05:45:43.578Z,10.02
2022-11-16T05:48:13.737Z,12.00
2022-11-16T05:50:43.145Z,18.63
2022-11-16T05:53:22.140Z,13.70
2022-11-16T05:55:50.288Z,13.65
2022-11-16T05:58:19.945Z,11.10
2022-11-16T06:00:51.248Z,10.75
2022-11-16T06:03:20.648Z,10.20
2022-11-16T06:05:48.687Z,9.98
2022-11-16T06:08:18.710Z,9.63
2022-11-16T06:10:47.262Z,13.15
2022-11-16T06:13:16.023Z,12.82
2022-11-16T06:18:26.858Z,13.90
2022-11-16T06:20:54.925Z,12.88
2022-11-16T06:23:23.533Z,15.35
2022-11-16T06:25:55.269Z,14.73
2022-11-16T06:28:26.150Z,13.05
2022-11-16T06:30:55.557Z,13.75
2022-11-16T06:33:27.645Z,11.93
2022-11-16T06:35:59.358Z,11.57
2022-11-16T06:38:27.850Z,12.23
2022-11-16T06:40:58.945Z,11.40
2022-11-16T06:43:29.211Z,12.88
2022-11-16T06:46:00.985Z,14.23
2022-11-16T06:48:30.662Z,13.70
2022-11-16T06:50:59.011Z,14.85
2022-11-16T06:53:29.462Z,12.13
2022-11-16T06:56:05.903Z,11.82
2022-11-16T06:58:41.683Z,16.88
2022-11-16T07:01:12.776Z,13.45
2022-11-16T07:03:43.244Z,12.15
2022-11-16T07:06:13.979Z,12.65
2022-11-16T07:08:45.230Z,11.18
2022-11-16T07:11:15.780Z,10.50
2022-11-16T07:13:44.313Z,10.38
2022-11-16T07:16:12.798Z,14.27
2022-11-16T07:18:46.572Z,13.70
2022-11-16T07:21:17.110Z,14.65
2022-11-16T07:23:46.095Z,14.93
2022-11-16T07:26:19.419Z,17.52
2022-11-16T07:28:53.317Z,17.45
2022-11-16T07:31:24.110Z,15.27
2022-11-16T07:34:12.062Z,18.33
2022-11-16T07:37:03.258Z,15.70
2022-11-16T07:39:31.374Z,15.10
2022-11-16T07:41:59.693Z,15.95
2022-11-16T07:44:40.661Z,19.77
2022-11-16T07:47:11.410Z,28.25
2022-11-16T07:49:39.437Z,18.45
2022-11-16T07:52:19.485Z,17.42
2022-11-16T07:54:55.532Z,16.60
2022-11-16T07:57:26.233Z,19.08
2022-11-16T07:59:56.463Z,19.63
2022-11-16T08:02:24.576Z,19.67
2022-11-16T08:04:53.627Z,23.25
2022-11-16T08:07:26.194Z,32.67
2022-11-16T08:09:57.082Z,23.38
2022-11-16T08:12:25.133Z,21.88
2022-11-16T08:14:54.494Z,29.55
2022-11-16T08:17:22.423Z,16.80
2022-11-16T08:19:50.663Z,55.92
2022-11-16T08:22:19.673Z,23.33
2022-11-16T08:24:48.171Z,18.63
2022-11-16T08:27:17.749Z,18.20
2022-11-16T08:29:50.805Z,16.38
2022-11-16T08:32:19.003Z,15.65
2022-11-16T08:34:46.940Z,24.77
2022-11-16T08:37:15.039Z,24.92
2022-11-16T08:39:45.455Z,20.00
2022-11-16T08:42:13.402Z,16.30
2022-11-16T08:44:45.414Z,17.90
2022-11-16T08:47:15.779Z,16.63
2022-11-16T08:52:34.307Z,15.63
2022-11-16T08:55:03.596Z,14.95
2022-11-16T08:57:31.599Z,15.15
2022-11-16T09:00:02.735Z,18.25
2022-11-16T09:02:30.667Z,18.02
2022-11-16T09:04:58.657Z,19.35
2022-11-16T09:07:26.611Z,23.33
2022-11-16T09:09:54.564Z,22.52
2022-11-16T09:12:22.806Z,22.80
2022-11-16T09:14:51.306Z,16.52
2022-11-16T09:17:23.066Z,17.95
2022-11-16T09:19:51.283Z,15.38
2022-11-16T09:22:19.483Z,15.27
2022-11-16T09:24:47.746Z,15.23
2022-11-16T09:27:16.729Z,14.15
2022-11-16T09:29:44.764Z,18.35
2022-11-16T09:32:12.727Z,15.20
2022-11-16T09:34:40.649Z,16.25
2022-11-16T09:37:09.166Z,15.10
2022-11-16T09:42:38.274Z,14.60
2022-11-16T09:45:15.726Z,18.45
2022-11-16T09:47:56.639Z,17.10
2022-11-16T09:55:52.925Z,15.70
2022-11-16T09:58:31.529Z,15.95
2022-11-16T10:01:06.555Z,16.90
2022-11-16T10:03:41.634Z,14.18
2022-11-16T10:06:22.938Z,13.55
2022-11-16T10:08:53.806Z,15.70
2022-11-16T10:11:47.568Z,18.38
2022-11-16T10:14:40.541Z,19.92
2022-11-16T10:17:49.552Z,15.85
2022-11-16T10:20:45.274Z,15.00
2022-11-16T10:23:34.682Z,16.20
2022-11-16T10:26:25.529Z,14.38
2022-11-16T10:29:14.547Z,14.70
2022-11-16T10:32:09.724Z,14.55
2022-11-16T10:34:53.894Z,39.38
2022-11-16T10:37:24.728Z,21.98
2022-11-16T10:39:55.876Z,17.38
2022-11-16T10:42:32.990Z,13.38
2022-11-16T10:45:36.565Z,12.27
2022-11-16T10:48:13.337Z,14.73
2022-11-16T10:50:46.658Z,15.25
2022-11-16T10:53:25.345Z,16.92
2022-11-16T10:56:20.301Z,13.98
2022-11-16T10:58:56.085Z,17.67
2022-11-16T11:01:36.720Z,15.77
2022-11-16T11:04:26.928Z,15.93
2022-11-16T11:07:16.668Z,15.25
2022-11-16T11:09:54.275Z,15.95
2022-11-16T11:12:39.429Z,16.80
2022-11-16T11:15:27.151Z,20.98
2022-11-16T11:18:13.981Z,18.67
2022-11-16T11:20:45.718Z,16.13
2022-11-16T11:23:18.654Z,19.55
2022-11-16T11:26:05.502Z,25.35
2022-11-16T11:28:38.969Z,18.88
2022-11-16T11:31:16.590Z,18.52
2022-11-16T11:33:57.622Z,18.55
2022-11-16T11:36:33.140Z,44.65
2022-11-16T11:42:15.274Z,25.73
2022-11-16T11:44:54.675Z,22.23
2022-11-16T11:48:02.978Z,29.00
2022-11-16T11:53:52.139Z,27.85
2022-11-16T11:56:20.202Z,24.70
2022-11-16T11:58:49.052Z,18.10
2022-11-16T12:01:38.231Z,20.65
2022-11-16T12:04:06.340Z,18.15
2022-11-16T12:06:56.482Z,22.85
2022-11-16T12:09:52.555Z,19.63
2022-11-16T12:12:32.535Z,15.80
2022-11-16T12:15:09.299Z,17.75
2022-11-16T12:17:53.801Z,18.05
2022-11-16T12:20:24.706Z,20.17
2022-11-16T12:23:07.553Z,19.85
2022-11-16T12:25:59.872Z,22.45
2022-11-16T12:28:33.293Z,18.55
2022-11-16T12:31:44.641Z,17.23
2022-11-16T12:34:36.701Z,16.73
2022-11-16T12:37:46.906Z,15.75
2022-11-16T12:40:36.026Z,20.58
2022-11-16T12:43:14.414Z,21.88
2022-11-16T12:46:14.957Z,19.25
2022-11-16T12:49:27.559Z,28.20
2022-11-16T12:52:07.198Z,13.90
2022-11-16T12:55:04.246Z,16.48
2022-11-16T12:57:59.651Z,19.75
2022-11-16T13:00:31.755Z,18.88
2022-11-16T13:03:28.360Z,22.20
2022-11-16T13:06:10.906Z,27.60
2022-11-16T13:08:45.092Z,19.92
2022-11-16T13:11:28.162Z,19.65
2022-11-16T13:14:01.166Z,40.85
2022-11-16T13:16:29.619Z,32.53
2022-11-16T13:18:59.301Z,22.92
2022-11-16T13:21:49.887Z,13.48
2022-11-16T13:24:47.413Z,19.95
2022-11-16T13:27:25.055Z,18.85
2022-11-16T13:30:04.722Z,21.30
2022-11-16T13:32:32.917Z,20.33
2022-11-16T13:35:03.887Z,25.25
2022-11-16T13:37:34.566Z,28.10
2022-11-16T13:40:02.638Z,22.38
2022-11-16T13:42:44.124Z,23.52
2022-11-16T13:45:21.264Z,30.20
2022-11-16T13:47:55.009Z,32.45
2022-11-16T13:50:38.123Z,23.27
2022-11-16T13:56:10.273Z,22.95
2022-11-16T13:58:46.157Z,21.15
2022-11-16T14:01:15.417Z,25.90
2022-11-16T14:03:46.121Z,22.20
2022-11-16T14:06:13.987Z,20.60
2022-11-16T14:08:49.262Z,10.35
2022-11-16T14:11:46.637Z,34.40
2022-11-16T14:14:58.266Z,74.97
2022-11-16T14:17:49.896Z,13.15
2022-11-16T14:20:35.547Z,19.52
2022-11-16T14:23:24.606Z,16.75
2022-11-16T14:26:27.704Z,42.78
2022-11-16T14:29:23.665Z,47.50
2022-11-16T14:31:58.078Z,41.75
2022-11-16T14:34:41.407Z,35.08
2022-11-16T14:37:29.228Z,40.08
2022-11-16T14:40:08.885Z,42.00
2022-11-16T14:43:21.750Z,60.83
2022-11-16T14:45:57.113Z,45.67
2022-11-16T14:48:26.430Z,70.50
2022-11-16T14:51:42.849Z,69.75
2022-11-16T14:54:38.422Z,55.00
2022-11-16T14:57:12.960Z,48.47
2022-11-16T14:59:40.833Z,47.85
2022-11-16T15:02:22.714Z,63.00
2022-11-16T15:04:53.189Z,48.70
2022-11-16T15:07:26.452Z,55.63
2022-11-16T15:09:58.972Z,49.70
2022-11-16T15:12:42.730Z,54.33
2022-11-16T15:15:11.086Z,47.28
2022-11-16T15:17:41.383Z,54.75
2022-11-16T15:20:20.092Z,52.45
2022-11-16T15:22:52.275Z,40.22
2022-11-16T15:25:43.225Z,35.50
2022-11-16T15:28:23.719Z,41.40
2022-11-16T15:30:59.473Z,36.47
2022-11-16T15:33:50.637Z,26.80
2022-11-16T15:36:23.381Z,29.85
2022-11-16T15:38:56.156Z,35.13
2022-11-16T15:41:28.221Z,34.70
2022-11-16T15:44:16.801Z,49.85
2022-11-16T15:46:49.272Z,45.13
2022-11-16T15:49:31.870Z,59.60
2022-11-16T15:52:00.841Z,47.58
2022-11-16T15:57:21.338Z,43.22
2022-11-16T15:59:54.878Z,37.60
2022-11-16T16:02:27.856Z,38.90
2022-11-16T16:04:56.891Z,45.67
2022-11-16T16:07:42.776Z,49.08
2022-11-16T16:10:19.683Z,72.00
2022-11-16T16:12:58.405Z,73.65
2022-11-16T16:15:30.152Z,80.53
2022-11-16T16:17:59.224Z,83.20
2022-11-16T16:20:30.917Z,63.47
2022-11-16T16:23:20.623Z,58.55
2022-11-16T16:25:50.733Z,70.88
2022-11-16T16:28:19.252Z,59.35
2022-11-16T16:30:51.455Z,69.55
2022-11-16T16:33:22.362Z,55.20
2022-11-16T16:35:51.379Z,52.40
2022-11-16T16:38:19.831Z,60.80
2022-11-16T16:40:47.881Z,67.93
2022-11-16T16:43:16.093Z,64.18
2022-11-16T16:45:44.133Z,65.43
2022-11-16T16:48:12.861Z,49.08
2022-11-16T16:53:12.967Z,88.35
2022-11-16T16:55:43.009Z,65.72
2022-11-16T16:58:12.980Z,58.70
2022-11-16T17:00:42.070Z,60.38
2022-11-16T17:05:38.411Z,44.28
2022-11-16T17:08:06.770Z,47.47
2022-11-16T17:10:37.171Z,59.80
2022-11-16T17:13:05.561Z,62.70
2022-11-16T17:15:33.770Z,54.67
2022-11-16T17:18:01.949Z,63.83
2022-11-16T17:20:30.179Z,64.53
2022-11-16T17:22:58.386Z,59.40
2022-11-16T17:25:26.687Z,57.97
2022-11-16T17:27:55.561Z,62.80
2022-11-16T17:30:23.446Z,69.03
2022-11-16T17:32:51.780Z,65.35
2022-11-16T17:35:20.433Z,66.97
2022-11-16T17:37:48.984Z,74.03
2022-11-16T17:40:17.534Z,68.40
2022-11-16T17:42:45.982Z,170.77
2022-11-16T17:45:14.443Z,168.25
2022-11-16T17:47:42.916Z,91.03
2022-11-16T17:50:11.802Z,77.93
2022-11-16T17:52:40.285Z,75.70
2022-11-16T17:55:09.301Z,77.80
2022-11-16T17:57:37.797Z,79.97
2022-11-16T18:00:07.890Z,78.80
2022-11-16T18:02:35.973Z,83.85
2022-11-16T18:05:04.846Z,77.70
2022-11-16T18:07:33.791Z,94.88
2022-11-16T18:10:02.019Z,84.82
2022-11-16T18:12:30.586Z,100.93
2022-11-16T18:15:26.387Z,87.45
2022-11-16T18:17:47.987Z,81.75
2022-11-16T18:20:16.545Z,83.95
2022-11-16T18:22:45.553Z,107.50
2022-11-16T18:27:42.064Z,93.15
2022-11-16T18:30:11.155Z,89.13
2022-11-16T18:32:40.010Z,74.13
2022-11-16T18:35:10.419Z,83.18
2022-11-16T18:37:38.871Z,82.55
2022-11-16T18:40:08.601Z,75.15
2022-11-16T18:42:37.236Z,63.60
2022-11-16T18:45:06.334Z,58.75
2022-11-16T18:47:34.997Z,60.92
2022-11-16T18:52:31.718Z,46.58
2022-11-16T18:55:00.480Z,72.60
2022-11-16T18:57:28.803Z,68.65
2022-11-16T18:59:58.627Z,56.47
2022-11-16T19:02:27.048Z,51.65
2022-11-16T19:04:55.884Z,49.33
2022-11-16T19:07:24.304Z,59.50
2022-11-16T19:09:52.860Z,66.72
2022-11-16T19:12:21.462Z,68.20
2022-11-16T19:14:49.723Z,64.57
2022-11-16T19:17:19.606Z,64.93
2022-11-16T19:19:48.294Z,66.82
2022-11-16T19:22:16.749Z,61.90
2022-11-16T19:24:45.152Z,62.03
2022-11-16T19:27:13.737Z,77.50
2022-11-16T19:29:41.970Z,90.47
2022-11-16T19:32:10.730Z,62.28
2022-11-16T19:34:39.078Z,42.55
2022-11-16T19:37:07.608Z,54.10
2022-11-16T19:39:36.115Z,42.90
2022-11-16T19:42:04.928Z,56.45
2022-11-16T19:44:33.362Z,99.22
2022-11-16T19:47:01.745Z,89.32
2022-11-16T19:49:30.334Z,67.20
2022-11-16T19:51:59.859Z,60.30
2022-11-16T19:54:28.444Z,43.92
2022-11-16T19:56:56.967Z,32.30
2022-11-16T19:59:25.670Z,36.30
2022-11-16T20:04:22.496Z,20.27
2022-11-16T20:06:51.022Z,25.17
2022-11-16T20:09:19.926Z,57.92
2022-11-16T20:11:48.278Z,78.57
2022-11-16T20:14:16.937Z,25.90
2022-11-16T20:16:47.625Z,41.45
2022-11-16T20:19:17.643Z,28.27
2022-11-16T20:21:46.070Z,36.45
2022-11-16T20:24:16.476Z,42.30
2022-11-16T20:26:48.236Z,46.22
2022-11-16T20:29:18.646Z,38.28
2022-11-16T20:31:47.378Z,37.72
2022-11-16T20:34:17.519Z,43.08
2022-11-16T20:36:47.582Z,49.00
2022-11-16T20:39:18.461Z,43.97
2022-11-16T20:41:48.326Z,43.13
2022-11-16T20:44:19.947Z,33.80
2022-11-16T20:46:49.353Z,22.92
2022-11-16T20:49:17.843Z,24.58
2022-11-16T20:51:48.051Z,16.85
2022-11-16T20:54:16.430Z,20.10
2022-11-16T20:56:45.124Z,20.58
2022-11-16T20:59:13.536Z,20.88
2022-11-16T21:01:47.877Z,21.50
2022-11-16T21:04:16.637Z,30.30
2022-11-16T21:09:22.899Z,28.45
2022-11-16T21:12:09.646Z,29.13
2022-11-16T21:14:38.422Z,27.83
2022-11-16T21:17:06.736Z,18.35
2022-11-16T21:19:35.214Z,12.48
2022-11-16T21:22:03.090Z,9.07
2022-11-16T21:24:32.634Z,10.13
2022-11-16T21:27:00.994Z,15.75
2022-11-16T21:29:28.925Z,12.30
2022-11-16T21:31:57.125Z,9.75
2022-11-16T21:34:28.095Z,8.75
2022-11-16T21:36:56.085Z,9.85
2022-11-16T21:39:24.004Z,10.05
2022-11-16T21:41:52.018Z,12.50
2022-11-16T21:44:20.075Z,15.52
2022-11-16T21:46:48.228Z,14.13
2022-11-16T21:49:16.229Z,12.07
2022-11-16T21:51:44.135Z,13.07
2022-11-16T21:54:12.191Z,14.18
2022-11-16T21:56:40.074Z,12.02
2022-11-16T21:59:07.999Z,12.50
2022-11-16T22:01:55.971Z,14.13
2022-11-16T22:04:42.628Z,12.13
2022-11-16T22:07:33.142Z,14.70
2022-11-16T22:10:02.816Z,11.93
2022-11-16T22:12:30.773Z,10.30
2022-11-16T22:14:58.947Z,11.35
2022-11-16T22:17:27.688Z,9.93
2022-11-16T22:19:55.768Z,10.38
2022-11-16T22:22:23.881Z,10.30
2022-11-16T22:24:51.895Z,11.38
2022-11-16T22:27:19.962Z,10.98
2022-11-16T22:29:47.866Z,11.65
2022-11-16T22:32:15.784Z,9.60
2022-11-16T22:34:43.887Z,8.88
2022-11-16T22:37:11.962Z,8.32
2022-11-16T22:39:39.809Z,9.57
2022-11-16T22:42:07.858Z,10.75
2022-11-16T22:44:37.713Z,10.95
2022-11-16T22:47:05.737Z,10.82
2022-11-16T22:49:33.544Z,9.55
2022-11-16T22:52:01.453Z,26.23
2022-11-16T22:54:31.065Z,12.43
2022-11-16T22:56:58.883Z,11.35
2022-11-16T22:59:26.718Z,13.23
2022-11-16T23:01:54.855Z,13.80
2022-11-16T23:04:22.696Z,11.88
2022-11-16T23:06:50.624Z,9.50
2022-11-16T23:09:18.596Z,10.65
2022-11-16T23:12:04.739Z,9.10
2022-11-16T23:14:51.075Z,7.97
2022-11-16T23:17:18.938Z,6.75
2022-11-16T23:20:05.143Z,8.32
2022-11-16T23:22:51.385Z,6.68
2022-11-16T23:25:37.763Z,7.50
2022-11-16T23:28:08.113Z,7.20
2022-11-16T23:30:36.734Z,6.68
2022-11-16T23:33:04.580Z,6.43
2022-11-16T23:35:32.807Z,8.15
2022-11-16T23:38:03.426Z,8.60
2022-11-16T23:40:36.047Z,8.20
2022-11-16T23:43:22.898Z,8.38
2022-11-16T23:45:51.208Z,9.63
2022-11-16T23:48:19.509Z,6.80
2022-11-16T23:50:47.411Z,10.32
2022-11-16T23:53:15.227Z,14.15
2022-11-16T23:55:43.078Z,12.13
2022-11-16T23:58:14.002Z,11.15
